Terminal Aerodrome Forecast
Issued by NWS

Home | Current Version | Previous Version | Text Only | Print | Product List | Glossary On
Versions: 1 2 3 4 5 6 7 8 9 10 11 12 13 14 15 16 17 18 19 20 21 22 23
000
FTUS43 KPAH 222210 AAA
TAFCGI
TAF AMD
KCGI 222210Z 2222/2318 17009KT P6SM SKC
     FM230700 18003KT 4SM BR BKN200
     FM230900 00000KT 2SM BR SKC
      TEMPO 2309/2313 3/4SM BR SCT003
     FM231400 20009KT P6SM OVC008=

USA.gov is the U.S. government's official web portal to all federal, state and local government web resources and services.